sensor_id;sensor_type;location;lat;lon;timestamp;temperature;humidity
13389;DHT22;6764;53.250;10.410;2022-10-31T00:01:15;13.00;99.90
13389;DHT22;6764;53.250;10.410;2022-10-31T00:03:41;13.10;99.90
13389;DHT22;6764;53.250;10.410;2022-10-31T00:06:07;13.00;99.90
13389;DHT22;6764;53.250;10.410;2022-10-31T00:08:33;13.00;99.90
13389;DHT22;6764;53.250;10.410;2022-10-31T00:10:58;12.90;99.90
13389;DHT22;6764;53.250;10.410;2022-10-31T00:13:24;12.90;99.90
13389;DHT22;6764;53.250;10.410;2022-10-31T00:15:49;12.90;99.90
13389;DHT22;6764;53.250;10.410;2022-10-31T00:18:15;12.90;99.90
13389;DHT22;6764;53.250;10.410;2022-10-31T00:20:41;12.90;99.90
13389;DHT22;6764;53.250;10.410;2022-10-31T00:23:06;12.90;99.90
13389;DHT22;6764;53.250;10.410;2022-10-31T00:25:38;12.90;99.90
13389;DHT22;6764;53.250;10.410;2022-10-31T00:28:05;12.80;99.90
13389;DHT22;6764;53.250;10.410;2022-10-31T00:30:31;12.80;99.90
13389;DHT22;6764;53.250;10.410;2022-10-31T00:32:57;12.80;99.90
13389;DHT22;6764;53.250;10.410;2022-10-31T00:35:22;12.90;99.90
13389;DHT22;6764;53.250;10.410;2022-10-31T00:37:48;12.80;99.90
13389;DHT22;6764;53.250;10.410;2022-10-31T00:40:14;12.80;99.90
13389;DHT22;6764;53.250;10.410;2022-10-31T00:42:40;12.80;99.90
13389;DHT22;6764;53.250;10.410;2022-10-31T00:45:08;12.70;99.90
13389;DHT22;6764;53.250;10.410;2022-10-31T00:47:34;12.80;99.90
13389;DHT22;6764;53.250;10.410;2022-10-31T00:49:59;12.80;99.90
13389;DHT22;6764;53.250;10.410;2022-10-31T00:52:25;12.80;99.90
13389;DHT22;6764;53.250;10.410;2022-10-31T00:54:50;12.80;99.90
13389;DHT22;6764;53.250;10.410;2022-10-31T00:57:16;12.80;99.90
13389;DHT22;6764;53.250;10.410;2022-10-31T00:59:42;12.70;99.90
13389;DHT22;6764;53.250;10.410;2022-10-31T01:02:07;12.80;99.90
13389;DHT22;6764;53.250;10.410;2022-10-31T01:04:33;12.80;99.90
13389;DHT22;6764;53.250;10.410;2022-10-31T01:06:58;12.70;99.90
13389;DHT22;6764;53.250;10.410;2022-10-31T01:09:24;12.70;99.90
13389;DHT22;6764;53.250;10.410;2022-10-31T01:11:49;12.70;99.90
13389;DHT22;6764;53.250;10.410;2022-10-31T01:14:15;12.70;99.90
13389;DHT22;6764;53.250;10.410;2022-10-31T01:16:40;12.70;99.90
13389;DHT22;6764;53.250;10.410;2022-10-31T01:19:06;12.60;99.90
13389;DHT22;6764;53.250;10.410;2022-10-31T01:21:32;12.70;99.90
13389;DHT22;6764;53.250;10.410;2022-10-31T01:23:58;12.60;99.90
13389;DHT22;6764;53.250;10.410;2022-10-31T01:26:26;12.60;99.90
13389;DHT22;6764;53.250;10.410;2022-10-31T01:28:55;12.60;99.90
13389;DHT22;6764;53.250;10.410;2022-10-31T01:31:23;12.60;99.90
13389;DHT22;6764;53.250;10.410;2022-10-31T01:33:49;12.60;99.90
13389;DHT22;6764;53.250;10.410;2022-10-31T01:36:21;12.50;99.90
13389;DHT22;6764;53.250;10.410;2022-10-31T01:38:48;12.50;99.90
13389;DHT22;6764;53.250;10.410;2022-10-31T01:41:17;12.50;99.90
13389;DHT22;6764;53.250;10.410;2022-10-31T01:46:12;12.40;99.90
13389;DHT22;6764;53.250;10.410;2022-10-31T01:48:39;12.40;99.90
13389;DHT22;6764;53.250;10.410;2022-10-31T01:51:06;12.30;99.90
13389;DHT22;6764;53.250;10.410;2022-10-31T01:53:32;12.30;99.90
13389;DHT22;6764;53.250;10.410;2022-10-31T01:55:59;12.30;99.90
13389;DHT22;6764;53.250;10.410;2022-10-31T01:58:28;12.20;99.90
13389;DHT22;6764;53.250;10.410;2022-10-31T02:00:58;12.30;99.90
13389;DHT22;6764;53.250;10.410;2022-10-31T02:03:25;12.30;99.90
13389;DHT22;6764;53.250;10.410;2022-10-31T02:05:53;12.30;99.90
13389;DHT22;6764;53.250;10.410;2022-10-31T02:08:26;12.40;99.90
13389;DHT22;6764;53.250;10.410;2022-10-31T02:10:53;12.40;99.90
13389;DHT22;6764;53.250;10.410;2022-10-31T02:13:20;12.40;99.90
13389;DHT22;6764;53.250;10.410;2022-10-31T02:15:52;12.40;99.90
13389;DHT22;6764;53.250;10.410;2022-10-31T02:18:18;12.40;99.90
13389;DHT22;6764;53.250;10.410;2022-10-31T02:21:08;12.50;99.90
13389;DHT22;6764;53.250;10.410;2022-10-31T02:24:17;12.50;99.90
13389;DHT22;6764;53.250;10.410;2022-10-31T02:32:11;12.50;99.90
13389;DHT22;6764;53.250;10.410;2022-10-31T02:34:44;12.50;99.90
13389;DHT22;6764;53.250;10.410;2022-10-31T02:42:34;12.50;99.90
13389;DHT22;6764;53.250;10.410;2022-10-31T02:45:17;12.60;99.90
13389;DHT22;6764;53.250;10.410;2022-10-31T02:47:46;12.60;99.90
13389;DHT22;6764;53.250;10.410;2022-10-31T02:50:16;12.70;99.90
13389;DHT22;6764;53.250;10.410;2022-10-31T02:52:43;12.70;99.90
13389;DHT22;6764;53.250;10.410;2022-10-31T02:58:12;12.80;99.90
13389;DHT22;6764;53.250;10.410;2022-10-31T03:06:39;12.90;99.90
13389;DHT22;6764;53.250;10.410;2022-10-31T03:11:57;13.00;99.90
13389;DHT22;6764;53.250;10.410;2022-10-31T03:14:30;13.00;99.90
13389;DHT22;6764;53.250;10.410;2022-10-31T03:17:00;13.00;99.90
13389;DHT22;6764;53.250;10.410;2022-10-31T03:19:34;13.00;99.90
13389;DHT22;6764;53.250;10.410;2022-10-31T03:22:22;13.00;99.90
13389;DHT22;6764;53.250;10.410;2022-10-31T03:24:50;13.00;99.90
13389;DHT22;6764;53.250;10.410;2022-10-31T03:27:22;13.10;99.90
13389;DHT22;6764;53.250;10.410;2022-10-31T03:29:49;13.10;99.90
13389;DHT22;6764;53.250;10.410;2022-10-31T03:32:26;13.20;99.90
13389;DHT22;6764;53.250;10.410;2022-10-31T03:34:55;13.20;99.90
13389;DHT22;6764;53.250;10.410;2022-10-31T03:37:23;13.20;99.90
13389;DHT22;6764;53.250;10.410;2022-10-31T03:39:51;13.20;99.90
13389;DHT22;6764;53.250;10.410;2022-10-31T03:42:22;13.20;99.90
13389;DHT22;6764;53.250;10.410;2022-10-31T03:44:57;13.30;99.90
13389;DHT22;6764;53.250;10.410;2022-10-31T03:47:23;13.30;99.90
13389;DHT22;6764;53.250;10.410;2022-10-31T03:49:49;13.30;99.90
13389;DHT22;6764;53.250;10.410;2022-10-31T03:52:27;13.40;99.90
13389;DHT22;6764;53.250;10.410;2022-10-31T03:55:01;13.50;99.90
13389;DHT22;6764;53.250;10.410;2022-10-31T03:57:35;13.50;99.90
13389;DHT22;6764;53.250;10.410;2022-10-31T04:00:10;13.60;99.90
13389;DHT22;6764;53.250;10.410;2022-10-31T04:02:41;13.60;99.90
13389;DHT22;6764;53.250;10.410;2022-10-31T04:05:09;13.60;99.90
13389;DHT22;6764;53.250;10.410;2022-10-31T04:07:40;13.60;99.90
13389;DHT22;6764;53.250;10.410;2022-10-31T04:10:10;13.60;99.90
13389;DHT22;6764;53.250;10.410;2022-10-31T04:12:37;13.60;99.90
13389;DHT22;6764;53.250;10.410;2022-10-31T04:15:06;13.60;99.90
13389;DHT22;6764;53.250;10.410;2022-10-31T04:17:36;13.60;99.90
13389;DHT22;6764;53.250;10.410;2022-10-31T04:20:04;13.60;99.90
13389;DHT22;6764;53.250;10.410;2022-10-31T04:22:30;13.60;99.90
13389;DHT22;6764;53.250;10.410;2022-10-31T04:24:56;13.60;99.90
13389;DHT22;6764;53.250;10.410;2022-10-31T04:27:21;13.60;99.90
13389;DHT22;6764;53.250;10.410;2022-10-31T04:29:47;13.60;99.90
13389;DHT22;6764;53.250;10.410;2022-10-31T04:32:13;13.60;99.90
13389;DHT22;6764;53.250;10.410;2022-10-31T04:34:38;13.60;99.90
13389;DHT22;6764;53.250;10.410;2022-10-31T04:37:04;13.60;99.90
13389;DHT22;6764;53.250;10.410;2022-10-31T04:39:29;13.60;99.90
13389;DHT22;6764;53.250;10.410;2022-10-31T04:41:55;13.60;99.90
13389;DHT22;6764;53.250;10.410;2022-10-31T04:44:21;13.60;99.90
13389;DHT22;6764;53.250;10.410;2022-10-31T04:46:46;13.60;99.90
13389;DHT22;6764;53.250;10.410;2022-10-31T04:49:12;13.60;99.90
13389;DHT22;6764;53.250;10.410;2022-10-31T04:51:38;13.60;99.90
13389;DHT22;6764;53.250;10.410;2022-10-31T04:54:03;13.60;99.90
13389;DHT22;6764;53.250;10.410;2022-10-31T04:56:29;13.60;99.90
13389;DHT22;6764;53.250;10.410;2022-10-31T04:58:54;13.60;99.90
13389;DHT22;6764;53.250;10.410;2022-10-31T05:01:20;13.60;99.90
13389;DHT22;6764;53.250;10.410;2022-10-31T05:03:46;13.60;99.90
13389;DHT22;6764;53.250;10.410;2022-10-31T05:06:11;13.60;99.90
13389;DHT22;6764;53.250;10.410;2022-10-31T05:08:37;13.60;99.90
13389;DHT22;6764;53.250;10.410;2022-10-31T05:11:03;13.60;99.90
13389;DHT22;6764;53.250;10.410;2022-10-31T05:13:29;13.60;99.90
13389;DHT22;6764;53.250;10.410;2022-10-31T05:15:54;13.60;99.90
13389;DHT22;6764;53.250;10.410;2022-10-31T05:18:20;13.60;99.90
13389;DHT22;6764;53.250;10.410;2022-10-31T05:20:46;13.50;99.90
13389;DHT22;6764;53.250;10.410;2022-10-31T05:23:12;13.50;99.90
13389;DHT22;6764;53.250;10.410;2022-10-31T05:25:40;13.50;99.90
13389;DHT22;6764;53.250;10.410;2022-10-31T05:28:05;13.50;99.90
13389;DHT22;6764;53.250;10.410;2022-10-31T05:30:31;13.50;99.90
13389;DHT22;6764;53.250;10.410;2022-10-31T05:32:58;13.50;99.90
13389;DHT22;6764;53.250;10.410;2022-10-31T05:35:33;13.50;99.90
13389;DHT22;6764;53.250;10.410;2022-10-31T05:37:59;13.50;99.90
13389;DHT22;6764;53.250;10.410;2022-10-31T05:40:26;13.60;99.90
13389;DHT22;6764;53.250;10.410;2022-10-31T05:42:53;13.70;99.90
13389;DHT22;6764;53.250;10.410;2022-10-31T05:45:19;13.70;99.90
13389;DHT22;6764;53.250;10.410;2022-10-31T05:47:57;13.70;99.90
13389;DHT22;6764;53.250;10.410;2022-10-31T05:50:24;13.70;99.90
13389;DHT22;6764;53.250;10.410;2022-10-31T05:53:00;13.70;99.90
13389;DHT22;6764;53.250;10.410;2022-10-31T05:55:26;13.80;99.90
13389;DHT22;6764;53.250;10.410;2022-10-31T05:57:53;13.80;99.90
13389;DHT22;6764;53.250;10.410;2022-10-31T06:00:19;13.80;99.90
13389;DHT22;6764;53.250;10.410;2022-10-31T06:02:45;13.80;99.90
13389;DHT22;6764;53.250;10.410;2022-10-31T06:05:11;13.80;99.90
13389;DHT22;6764;53.250;10.410;2022-10-31T06:07:37;13.80;99.90
13389;DHT22;6764;53.250;10.410;2022-10-31T06:10:04;13.90;99.90
13389;DHT22;6764;53.250;10.410;2022-10-31T06:12:30;13.90;99.90
13389;DHT22;6764;53.250;10.410;2022-10-31T06:14:56;13.90;99.90
13389;DHT22;6764;53.250;10.410;2022-10-31T06:17:22;13.90;99.90
13389;DHT22;6764;53.250;10.410;2022-10-31T06:19:47;13.90;99.90
13389;DHT22;6764;53.250;10.410;2022-10-31T06:22:13;14.00;99.90
13389;DHT22;6764;53.250;10.410;2022-10-31T06:24:39;14.00;99.90
13389;DHT22;6764;53.250;10.410;2022-10-31T06:27:05;14.00;99.90
13389;DHT22;6764;53.250;10.410;2022-10-31T06:29:31;14.00;99.90
13389;DHT22;6764;53.250;10.410;2022-10-31T06:31:56;14.00;99.90
13389;DHT22;6764;53.250;10.410;2022-10-31T06:34:22;14.00;99.90
13389;DHT22;6764;53.250;10.410;2022-10-31T06:36:48;14.00;99.90
13389;DHT22;6764;53.250;10.410;2022-10-31T06:39:14;14.00;99.90
13389;DHT22;6764;53.250;10.410;2022-10-31T06:41:40;14.00;99.90
13389;DHT22;6764;53.250;10.410;2022-10-31T06:44:07;14.10;99.90
13389;DHT22;6764;53.250;10.410;2022-10-31T06:46:32;14.10;99.90
13389;DHT22;6764;53.250;10.410;2022-10-31T06:48:58;14.10;99.90
13389;DHT22;6764;53.250;10.410;2022-10-31T06:51:24;14.10;99.90
13389;DHT22;6764;53.250;10.410;2022-10-31T06:53:49;14.20;99.90
13389;DHT22;6764;53.250;10.410;2022-10-31T06:56:15;14.20;99.90
13389;DHT22;6764;53.250;10.410;2022-10-31T06:58:40;14.20;99.90
13389;DHT22;6764;53.250;10.410;2022-10-31T07:01:06;14.20;99.90
13389;DHT22;6764;53.250;10.410;2022-10-31T07:03:32;14.20;99.90
13389;DHT22;6764;53.250;10.410;2022-10-31T07:05:57;14.20;99.90
13389;DHT22;6764;53.250;10.410;2022-10-31T07:08:23;14.20;99.90
13389;DHT22;6764;53.250;10.410;2022-10-31T07:10:54;14.30;99.90
13389;DHT22;6764;53.250;10.410;2022-10-31T07:13:21;14.30;99.90
13389;DHT22;6764;53.250;10.410;2022-10-31T07:16:01;14.40;99.90
13389;DHT22;6764;53.250;10.410;2022-10-31T07:18:27;14.40;99.90
13389;DHT22;6764;53.250;10.410;2022-10-31T07:20:52;14.40;99.90
13389;DHT22;6764;53.250;10.410;2022-10-31T07:23:18;14.40;99.90
13389;DHT22;6764;53.250;10.410;2022-10-31T07:25:44;14.40;99.90
13389;DHT22;6764;53.250;10.410;2022-10-31T07:28:10;14.50;99.90
13389;DHT22;6764;53.250;10.410;2022-10-31T07:30:37;14.50;99.90
13389;DHT22;6764;53.250;10.410;2022-10-31T07:33:03;14.60;99.90
13389;DHT22;6764;53.250;10.410;2022-10-31T07:35:29;14.60;99.90
13389;DHT22;6764;53.250;10.410;2022-10-31T07:37:55;14.60;99.90
13389;DHT22;6764;53.250;10.410;2022-10-31T07:40:21;14.70;99.90
13389;DHT22;6764;53.250;10.410;2022-10-31T07:42:48;14.80;99.90
13389;DHT22;6764;53.250;10.410;2022-10-31T07:45:19;14.80;99.90
13389;DHT22;6764;53.250;10.410;2022-10-31T07:47:52;14.80;99.90
13389;DHT22;6764;53.250;10.410;2022-10-31T07:50:20;14.80;99.90
13389;DHT22;6764;53.250;10.410;2022-10-31T07:52:46;14.80;99.90
13389;DHT22;6764;53.250;10.410;2022-10-31T07:55:12;14.80;99.90
13389;DHT22;6764;53.250;10.410;2022-10-31T07:57:38;14.90;99.90
13389;DHT22;6764;53.250;10.410;2022-10-31T08:00:05;15.00;99.90
13389;DHT22;6764;53.250;10.410;2022-10-31T08:02:31;15.00;99.90
13389;DHT22;6764;53.250;10.410;2022-10-31T08:04:57;15.00;99.90
13389;DHT22;6764;53.250;10.410;2022-10-31T08:07:22;15.10;99.90
13389;DHT22;6764;53.250;10.410;2022-10-31T08:09:48;15.10;99.90
13389;DHT22;6764;53.250;10.410;2022-10-31T08:12:13;15.20;99.90
13389;DHT22;6764;53.250;10.410;2022-10-31T08:14:39;15.20;99.90
13389;DHT22;6764;53.250;10.410;2022-10-31T08:17:05;15.20;99.90
13389;DHT22;6764;53.250;10.410;2022-10-31T08:19:30;15.30;99.90
13389;DHT22;6764;53.250;10.410;2022-10-31T08:21:56;15.30;99.90
13389;DHT22;6764;53.250;10.410;2022-10-31T08:24:22;15.30;99.90
13389;DHT22;6764;53.250;10.410;2022-10-31T08:26:47;15.40;99.90
13389;DHT22;6764;53.250;10.410;2022-10-31T08:29:13;15.50;99.90
13389;DHT22;6764;53.250;10.410;2022-10-31T08:31:40;15.60;99.90
13389;DHT22;6764;53.250;10.410;2022-10-31T08:34:06;15.50;99.90
13389;DHT22;6764;53.250;10.410;2022-10-31T08:36:32;15.60;99.90
13389;DHT22;6764;53.250;10.410;2022-10-31T08:38:57;15.70;99.90
13389;DHT22;6764;53.250;10.410;2022-10-31T08:41:23;15.70;99.90
13389;DHT22;6764;53.250;10.410;2022-10-31T08:43:48;15.70;99.90
13389;DHT22;6764;53.250;10.410;2022-10-31T08:46:14;15.60;99.90
13389;DHT22;6764;53.250;10.410;2022-10-31T08:48:40;15.50;99.90
13389;DHT22;6764;53.250;10.410;2022-10-31T08:51:05;15.70;99.90
13389;DHT22;6764;53.250;10.410;2022-10-31T08:53:31;15.70;99.90
13389;DHT22;6764;53.250;10.410;2022-10-31T08:55:57;15.80;99.90
13389;DHT22;6764;53.250;10.410;2022-10-31T08:58:23;15.80;99.90
13389;DHT22;6764;53.250;10.410;2022-10-31T09:00:51;15.90;99.90
13389;DHT22;6764;53.250;10.410;2022-10-31T09:05:47;16.00;99.90
13389;DHT22;6764;53.250;10.410;2022-10-31T09:08:13;16.00;99.90
13389;DHT22;6764;53.250;10.410;2022-10-31T09:10:39;16.10;99.90
13389;DHT22;6764;53.250;10.410;2022-10-31T09:13:07;16.10;99.90
13389;DHT22;6764;53.250;10.410;2022-10-31T09:15:37;16.20;99.90
13389;DHT22;6764;53.250;10.410;2022-10-31T09:18:06;16.20;99.90
13389;DHT22;6764;53.250;10.410;2022-10-31T09:20:34;16.20;99.90
13389;DHT22;6764;53.250;10.410;2022-10-31T09:23:03;16.20;99.90
13389;DHT22;6764;53.250;10.410;2022-10-31T09:25:29;16.20;99.90
13389;DHT22;6764;53.250;10.410;2022-10-31T09:27:59;16.30;99.90
13389;DHT22;6764;53.250;10.410;2022-10-31T09:30:30;16.30;99.90
13389;DHT22;6764;53.250;10.410;2022-10-31T09:33:03;16.40;99.90
13389;DHT22;6764;53.250;10.410;2022-10-31T09:35:29;16.40;99.90
13389;DHT22;6764;53.250;10.410;2022-10-31T09:38:03;16.40;99.90
13389;DHT22;6764;53.250;10.410;2022-10-31T09:40:44;16.50;99.90
13389;DHT22;6764;53.250;10.410;2022-10-31T09:51:25;16.40;99.90
13389;DHT22;6764;53.250;10.410;2022-10-31T09:54:06;16.50;99.90
13389;DHT22;6764;53.250;10.410;2022-10-31T09:56:34;16.40;99.90
13389;DHT22;6764;53.250;10.410;2022-10-31T09:59:02;16.40;99.90
13389;DHT22;6764;53.250;10.410;2022-10-31T10:01:42;16.50;99.90
13389;DHT22;6764;53.250;10.410;2022-10-31T10:04:32;16.60;99.90
13389;DHT22;6764;53.250;10.410;2022-10-31T10:07:02;16.60;99.90
13389;DHT22;6764;53.250;10.410;2022-10-31T10:09:29;16.60;99.90
13389;DHT22;6764;53.250;10.410;2022-10-31T10:18:26;16.50;99.90
13389;DHT22;6764;53.250;10.410;2022-10-31T10:21:04;16.60;99.90
13389;DHT22;6764;53.250;10.410;2022-10-31T10:24:00;16.60;99.90
13389;DHT22;6764;53.250;10.410;2022-10-31T10:26:36;16.80;99.90
13389;DHT22;6764;53.250;10.410;2022-10-31T10:29:57;16.90;99.90
13389;DHT22;6764;53.250;10.410;2022-10-31T10:31:55;16.80;99.90
13389;DHT22;6764;53.250;10.410;2022-10-31T10:34:37;16.90;99.90
13389;DHT22;6764;53.250;10.410;2022-10-31T10:37:38;16.90;99.90
13389;DHT22;6764;53.250;10.410;2022-10-31T10:42:37;17.00;99.90
13389;DHT22;6764;53.250;10.410;2022-10-31T10:45:21;17.00;99.90
13389;DHT22;6764;53.250;10.410;2022-10-31T10:48:18;17.10;99.90
13389;DHT22;6764;53.250;10.410;2022-10-31T10:50:48;17.20;99.90
13389;DHT22;6764;53.250;10.410;2022-10-31T10:53:27;17.40;99.90
13389;DHT22;6764;53.250;10.410;2022-10-31T10:56:26;17.60;99.90
13389;DHT22;6764;53.250;10.410;2022-10-31T10:58:56;17.80;99.90
13389;DHT22;6764;53.250;10.410;2022-10-31T11:01:22;17.70;99.90
13389;DHT22;6764;53.250;10.410;2022-10-31T11:03:49;17.70;99.90
13389;DHT22;6764;53.250;10.410;2022-10-31T11:06:22;17.70;99.90
13389;DHT22;6764;53.250;10.410;2022-10-31T11:08:51;17.70;99.90
13389;DHT22;6764;53.250;10.410;2022-10-31T11:11:22;17.70;99.90
13389;DHT22;6764;53.250;10.410;2022-10-31T11:13:57;17.70;99.90
13389;DHT22;6764;53.250;10.410;2022-10-31T11:18:51;17.60;99.90
13389;DHT22;6764;53.250;10.410;2022-10-31T11:21:35;17.60;99.90
13389;DHT22;6764;53.250;10.410;2022-10-31T11:26:33;17.50;99.90
13389;DHT22;6764;53.250;10.410;2022-10-31T11:29:00;17.40;99.90
13389;DHT22;6764;53.250;10.410;2022-10-31T11:31:28;17.30;99.90
13389;DHT22;6764;53.250;10.410;2022-10-31T11:34:03;17.30;99.90
13389;DHT22;6764;53.250;10.410;2022-10-31T11:36:37;17.40;99.90
13389;DHT22;6764;53.250;10.410;2022-10-31T11:39:05;17.40;99.90
13389;DHT22;6764;53.250;10.410;2022-10-31T11:41:38;17.40;99.90
13389;DHT22;6764;53.250;10.410;2022-10-31T11:44:25;17.50;99.90
13389;DHT22;6764;53.250;10.410;2022-10-31T11:46:54;17.50;99.90
13389;DHT22;6764;53.250;10.410;2022-10-31T11:49:31;17.50;99.90
13389;DHT22;6764;53.250;10.410;2022-10-31T11:52:04;17.50;99.90
13389;DHT22;6764;53.250;10.410;2022-10-31T11:54:34;17.60;99.90
13389;DHT22;6764;53.250;10.410;2022-10-31T11:57:00;17.70;99.90
13389;DHT22;6764;53.250;10.410;2022-10-31T11:59:30;17.90;99.90
13389;DHT22;6764;53.250;10.410;2022-10-31T12:01:58;17.90;99.90
13389;DHT22;6764;53.250;10.410;2022-10-31T12:04:41;17.90;99.90
13389;DHT22;6764;53.250;10.410;2022-10-31T12:07:09;17.80;99.90
13389;DHT22;6764;53.250;10.410;2022-10-31T12:09:36;17.90;99.90
13389;DHT22;6764;53.250;10.410;2022-10-31T12:15:01;18.00;99.90
13389;DHT22;6764;53.250;10.410;2022-10-31T12:20:39;18.00;99.90
13389;DHT22;6764;53.250;10.410;2022-10-31T12:25:45;18.10;99.90
13389;DHT22;6764;53.250;10.410;2022-10-31T12:50:49;17.60;99.90
13389;DHT22;6764;53.250;10.410;2022-10-31T12:53:40;17.60;99.90
13389;DHT22;6764;53.250;10.410;2022-10-31T12:58:59;17.40;99.90
13389;DHT22;6764;53.250;10.410;2022-10-31T13:01:35;17.30;99.90
13389;DHT22;6764;53.250;10.410;2022-10-31T13:04:09;17.20;99.90
13389;DHT22;6764;53.250;10.410;2022-10-31T13:06:42;17.20;99.90
13389;DHT22;6764;53.250;10.410;2022-10-31T13:09:17;17.00;99.90
13389;DHT22;6764;53.250;10.410;2022-10-31T13:11:53;17.00;99.90
13389;DHT22;6764;53.250;10.410;2022-10-31T13:14:46;17.00;99.90
13389;DHT22;6764;53.250;10.410;2022-10-31T13:20:15;17.00;99.90
13389;DHT22;6764;53.250;10.410;2022-10-31T13:22:45;17.00;99.90
13389;DHT22;6764;53.250;10.410;2022-10-31T13:25:16;17.00;99.90
13389;DHT22;6764;53.250;10.410;2022-10-31T13:27:58;16.90;99.90
13389;DHT22;6764;53.250;10.410;2022-10-31T13:30:28;16.80;99.90
13389;DHT22;6764;53.250;10.410;2022-10-31T13:33:12;16.90;99.90
13389;DHT22;6764;53.250;10.410;2022-10-31T13:41:11;16.80;99.90
13389;DHT22;6764;53.250;10.410;2022-10-31T13:48:59;16.70;99.90
13389;DHT22;6764;53.250;10.410;2022-10-31T13:51:27;16.70;99.90
13389;DHT22;6764;53.250;10.410;2022-10-31T13:53:59;16.70;99.90
13389;DHT22;6764;53.250;10.410;2022-10-31T13:56:30;16.60;99.90
13389;DHT22;6764;53.250;10.410;2022-10-31T14:01:34;16.50;99.90
13389;DHT22;6764;53.250;10.410;2022-10-31T14:04:15;16.50;99.90
13389;DHT22;6764;53.250;10.410;2022-10-31T14:06:53;16.40;99.90
13389;DHT22;6764;53.250;10.410;2022-10-31T14:09:30;16.50;99.90
13389;DHT22;6764;53.250;10.410;2022-10-31T14:11:59;16.40;99.90
13389;DHT22;6764;53.250;10.410;2022-10-31T14:14:31;16.40;99.90
13389;DHT22;6764;53.250;10.410;2022-10-31T14:16:58;16.40;99.90
13389;DHT22;6764;53.250;10.410;2022-10-31T14:19:24;16.40;99.90
13389;DHT22;6764;53.250;10.410;2022-10-31T14:21:51;16.40;99.90
13389;DHT22;6764;53.250;10.410;2022-10-31T14:26:59;16.40;99.90
13389;DHT22;6764;53.250;10.410;2022-10-31T14:29:28;16.30;99.90
13389;DHT22;6764;53.250;10.410;2022-10-31T14:31:57;16.30;99.90
13389;DHT22;6764;53.250;10.410;2022-10-31T14:34:33;16.20;99.90
13389;DHT22;6764;53.250;10.410;2022-10-31T14:40:22;16.10;99.90
13389;DHT22;6764;53.250;10.410;2022-10-31T14:48:37;15.90;99.90
13389;DHT22;6764;53.250;10.410;2022-10-31T14:51:16;15.90;99.90
13389;DHT22;6764;53.250;10.410;2022-10-31T14:53:51;15.70;99.90
13389;DHT22;6764;53.250;10.410;2022-10-31T14:56:26;15.60;99.90
13389;DHT22;6764;53.250;10.410;2022-10-31T14:58:54;15.60;99.90
13389;DHT22;6764;53.250;10.410;2022-10-31T15:01:30;15.50;99.90
13389;DHT22;6764;53.250;10.410;2022-10-31T15:04:23;15.40;99.90
13389;DHT22;6764;53.250;10.410;2022-10-31T15:06:54;15.30;99.90
13389;DHT22;6764;53.250;10.410;2022-10-31T15:09:28;15.30;99.90
13389;DHT22;6764;53.250;10.410;2022-10-31T15:11:55;15.30;99.90
13389;DHT22;6764;53.250;10.410;2022-10-31T15:14:29;15.20;99.90
13389;DHT22;6764;53.250;10.410;2022-10-31T15:17:01;15.20;99.90
13389;DHT22;6764;53.250;10.410;2022-10-31T15:19:30;15.20;99.90
13389;DHT22;6764;53.250;10.410;2022-10-31T15:21:56;15.10;99.90
13389;DHT22;6764;53.250;10.410;2022-10-31T15:24:35;15.10;99.90
13389;DHT22;6764;53.250;10.410;2022-10-31T15:27:01;15.10;99.90
13389;DHT22;6764;53.250;10.410;2022-10-31T15:29:28;15.00;99.90
13389;DHT22;6764;53.250;10.410;2022-10-31T15:31:57;15.00;99.90
13389;DHT22;6764;53.250;10.410;2022-10-31T15:34:39;15.00;99.90
13389;DHT22;6764;53.250;10.410;2022-10-31T15:37:16;15.00;99.90
13389;DHT22;6764;53.250;10.410;2022-10-31T15:39:43;15.00;99.90
13389;DHT22;6764;53.250;10.410;2022-10-31T15:42:30;15.00;99.90
13389;DHT22;6764;53.250;10.410;2022-10-31T15:47:36;14.80;99.90
13389;DHT22;6764;53.250;10.410;2022-10-31T15:50:04;14.70;99.90
13389;DHT22;6764;53.250;10.410;2022-10-31T15:52:43;14.70;99.90
13389;DHT22;6764;53.250;10.410;2022-10-31T15:57:55;14.60;99.90
13389;DHT22;6764;53.250;10.410;2022-10-31T16:00:29;14.50;99.90
13389;DHT22;6764;53.250;10.410;2022-10-31T16:03:06;14.50;99.90
13389;DHT22;6764;53.250;10.410;2022-10-31T16:05:44;14.40;99.90
13389;DHT22;6764;53.250;10.410;2022-10-31T16:10:58;14.40;99.90
13389;DHT22;6764;53.250;10.410;2022-10-31T16:13:30;14.30;99.90
13389;DHT22;6764;53.250;10.410;2022-10-31T16:16:01;14.30;99.90
13389;DHT22;6764;53.250;10.410;2022-10-31T16:18:29;14.30;99.90
13389;DHT22;6764;53.250;10.410;2022-10-31T16:20:55;14.20;99.90
13389;DHT22;6764;53.250;10.410;2022-10-31T16:23:23;14.20;99.90
13389;DHT22;6764;53.250;10.410;2022-10-31T16:25:50;14.20;99.90
13389;DHT22;6764;53.250;10.410;2022-10-31T16:28:25;14.20;99.90
13389;DHT22;6764;53.250;10.410;2022-10-31T16:30:52;14.20;99.90
13389;DHT22;6764;53.250;10.410;2022-10-31T16:36:46;14.20;99.90
13389;DHT22;6764;53.250;10.410;2022-10-31T16:38:47;14.20;99.90
13389;DHT22;6764;53.250;10.410;2022-10-31T16:41:12;14.20;99.90
13389;DHT22;6764;53.250;10.410;2022-10-31T16:43:38;14.20;99.90
13389;DHT22;6764;53.250;10.410;2022-10-31T16:49:21;14.20;99.90
13389;DHT22;6764;53.250;10.410;2022-10-31T16:51:47;14.20;99.90
13389;DHT22;6764;53.250;10.410;2022-10-31T16:54:12;14.20;99.90
13389;DHT22;6764;53.250;10.410;2022-10-31T16:56:38;14.20;99.90
13389;DHT22;6764;53.250;10.410;2022-10-31T16:59:06;14.20;99.90
13389;DHT22;6764;53.250;10.410;2022-10-31T17:01:34;14.20;99.90
13389;DHT22;6764;53.250;10.410;2022-10-31T17:04:00;14.20;99.90
13389;DHT22;6764;53.250;10.410;2022-10-31T17:06:26;14.30;99.90
13389;DHT22;6764;53.250;10.410;2022-10-31T17:08:53;14.30;99.90
13389;DHT22;6764;53.250;10.410;2022-10-31T17:11:21;14.30;99.90
13389;DHT22;6764;53.250;10.410;2022-10-31T17:13:48;14.30;99.90
13389;DHT22;6764;53.250;10.410;2022-10-31T17:16:13;14.30;99.90
13389;DHT22;6764;53.250;10.410;2022-10-31T17:18:40;14.30;99.90
13389;DHT22;6764;53.250;10.410;2022-10-31T17:21:05;14.30;99.90
13389;DHT22;6764;53.250;10.410;2022-10-31T17:23:31;14.30;99.90
13389;DHT22;6764;53.250;10.410;2022-10-31T17:25:58;14.40;99.90
13389;DHT22;6764;53.250;10.410;2022-10-31T17:28:24;14.40;99.90
13389;DHT22;6764;53.250;10.410;2022-10-31T17:30:52;14.40;99.90
13389;DHT22;6764;53.250;10.410;2022-10-31T17:33:17;14.30;99.90
13389;DHT22;6764;53.250;10.410;2022-10-31T17:35:43;14.40;99.90
13389;DHT22;6764;53.250;10.410;2022-10-31T17:38:10;14.40;99.90
13389;DHT22;6764;53.250;10.410;2022-10-31T17:40:37;14.40;99.90
13389;DHT22;6764;53.250;10.410;2022-10-31T17:43:03;14.40;99.90
13389;DHT22;6764;53.250;10.410;2022-10-31T17:45:29;14.40;99.90
13389;DHT22;6764;53.250;10.410;2022-10-31T17:47:55;14.40;99.90
13389;DHT22;6764;53.250;10.410;2022-10-31T17:50:22;14.40;99.90